Terminal Aerodrome Forecast
Issued by NWS

Home | Current Version | Previous Version | Text Only | Print | Product List | Glossary On
Versions: 1 2 3 4 5 6 7 8 9 10 11 12 13 14 15 16 17 18 19 20 21 22 23
000
FTUS45 KABQ 311700
TAFROW
TAF
KROW 311737Z 3118/0118 02008KT P6SM SCT020 BKN025 BKN080
     FM312200 12010KT P6SM BKN050 BKN100
     FM010400 15008KT P6SM VCSH BKN035 OVC080
     FM011200 12006KT P6SM BKN035=

USA.gov is the U.S. government's official web portal to all federal, state and local government web resources and services.